メインページ
METAR-TAF:

METAR-TAF

空港 :

ドゥシャンベ空港

ドゥシャンベ, タジキスタン

緯度: 38-33N, 経度: 068-47E, 海抜: 803m

現時点の気象観測

当レポートは15分前の03:00(UTC)に作成
変向風 2kt
気温 15°C
湿度 88%
気圧 1019 hPa
視程10km以上
高度6600ftの雲はほとんどない, 積乱雲.
高度11000ftの雲は散在している
高度13000ftの千切れ雲あり

METAR: UTDD 210300Z VRB01MPS 9999 FEW066CB SCT110 BKN130 15/13 Q1019 R09/D NOSIG RMK QFE696/0928

時間: 08:15 (03:15 UTC)

予報

当レポートは3時間15分前の00:00(UTC)に作成
予報は21日の 01時(UTC)から 21日の 13時(UTC)まで有効
変向風 4kt
視程: 6000m
高度5000ftの雲は散在している, 積乱雲.
高度10000ftの千切れ雲あり
確率 40% :
21日の 01時(UTC)から 21日の 06時(UTC)まで一時的に
激しい雷雨
21日の 06時(UTC)から 21日の 13時(UTC)まで一時的に
変向風 14kt
視程: 3100m
激しい雷雨, 小雨, 靄

TAF: UTDD 210000Z 2101/2113 VRB02MPS 6000 SCT050CB BKN100 PROB40 TEMPO 2101/2106 TS TEMPO 2106/2113 VRB07MPS 3100 -TSRA BR

4,000以上の空港の気象観測と天気予報(METAR報とTAF報)

利用可能な観測所は地図上に黄色い丸と赤い丸で示す。

丸の上にカーソルを重ねると観測所名を参照できる。

次にクリックすると気象観測と天気予報を参照できる。

マップの切り替え:黒色「×」印の緑ボタンをクリックして拡大、「-」印の緑ボタンをクリックして縮小、緑色の三角印をクリックして隣りの地図に切り替え


METAR-TAF: